sensor_id;sensor_type;location;lat;lon;timestamp;pressure;altitude;pressure_sealevel;temperature;humidity
15007;BME280;7599;50.748;13.142;2023-04-05T00:00:52;96287.06;;;11.45;59.76
15007;BME280;7599;50.748;13.142;2023-04-05T00:03:56;96278.56;;;11.43;60.06
15007;BME280;7599;50.748;13.142;2023-04-05T00:07:00;96277.31;;;11.46;59.35
15007;BME280;7599;50.748;13.142;2023-04-05T00:10:10;96270.00;;;11.48;59.45
15007;BME280;7599;50.748;13.142;2023-04-05T00:13:14;96270.00;;;11.48;59.64
15007;BME280;7599;50.748;13.142;2023-04-05T00:16:17;96262.75;;;11.43;59.68
15007;BME280;7599;50.748;13.142;2023-04-05T00:19:20;96257.91;;;11.40;59.31
15007;BME280;7599;50.748;13.142;2023-04-05T00:22:23;96258.97;;;11.39;59.98
15007;BME280;7599;50.748;13.142;2023-04-05T00:25:33;96253.25;;;11.42;59.75
15007;BME280;7599;50.748;13.142;2023-04-05T00:28:36;96253.25;;;11.42;59.90
15007;BME280;7599;50.748;13.142;2023-04-05T00:31:39;96251.19;;;11.44;59.75
15007;BME280;7599;50.748;13.142;2023-04-05T00:34:42;96253.84;;;11.44;59.81
15007;BME280;7599;50.748;13.142;2023-04-05T00:37:44;96252.00;;;11.45;59.51
15007;BME280;7599;50.748;13.142;2023-04-05T00:40:48;96248.56;;;11.44;59.57
15007;BME280;7599;50.748;13.142;2023-04-05T00:43:51;96241.25;;;11.46;59.75
15007;BME280;7599;50.748;13.142;2023-04-05T00:46:54;96241.25;;;11.46;59.49
15007;BME280;7599;50.748;13.142;2023-04-05T00:49:57;96236.41;;;11.43;59.52
15007;BME280;7599;50.748;13.142;2023-04-05T00:53:00;96235.19;;;11.46;59.45
15007;BME280;7599;50.748;13.142;2023-04-05T00:56:04;96237.59;;;11.47;59.30
15007;BME280;7599;50.748;13.142;2023-04-05T00:59:07;96235.97;;;11.46;59.42
15007;BME280;7599;50.748;13.142;2023-04-05T01:02:14;96235.97;;;11.46;59.50
15007;BME280;7599;50.748;13.142;2023-04-05T01:05:27;96239.25;;;11.42;59.57
15007;BME280;7599;50.748;13.142;2023-04-05T01:08:36;96237.81;;;11.46;59.27
15007;BME280;7599;50.748;13.142;2023-04-05T01:11:44;96235.19;;;11.46;59.48
15007;BME280;7599;50.748;13.142;2023-04-05T01:14:50;96226.69;;;11.44;59.42
15007;BME280;7599;50.748;13.142;2023-04-05T01:17:53;96227.28;;;11.46;59.61
15007;BME280;7599;50.748;13.142;2023-04-05T01:21:06;96219.16;;;11.47;59.52
15007;BME280;7599;50.748;13.142;2023-04-05T01:24:30;96214.31;;;11.44;59.43
15007;BME280;7599;50.748;13.142;2023-04-05T01:27:55;96213.88;;;11.47;59.40
15007;BME280;7599;50.748;13.142;2023-04-05T01:31:06;96209.63;;;11.46;59.48
15007;BME280;7599;50.748;13.142;2023-04-05T01:34:16;96205.38;;;11.45;59.48
15007;BME280;7599;50.748;13.142;2023-04-05T01:37:25;96203.78;;;11.44;59.42
15007;BME280;7599;50.748;13.142;2023-04-05T01:40:28;96210.66;;;11.45;59.59
15007;BME280;7599;50.748;13.142;2023-04-05T01:43:31;96208.03;;;11.45;59.40
15007;BME280;7599;50.748;13.142;2023-04-05T01:46:35;96205.38;;;11.45;59.54
15007;BME280;7599;50.748;13.142;2023-04-05T01:49:38;96203.56;;;11.46;59.42
15007;BME280;7599;50.748;13.142;2023-04-05T01:52:40;96201.94;;;11.45;59.39
15007;BME280;7599;50.748;13.142;2023-04-05T01:55:43;96200.72;;;11.47;59.23
15007;BME280;7599;50.748;13.142;2023-04-05T01:58:46;96199.31;;;11.45;59.22
15007;BME280;7599;50.748;13.142;2023-04-05T02:01:51;96210.44;;;11.47;59.56
15007;BME280;7599;50.748;13.142;2023-04-05T02:04:54;96197.28;;;11.47;59.11
15007;BME280;7599;50.748;13.142;2023-04-05T02:07:57;96191.41;;;11.45;59.48
15007;BME280;7599;50.748;13.142;2023-04-05T02:11:00;96197.47;;;11.45;59.61
15007;BME280;7599;50.748;13.142;2023-04-05T02:14:02;96190.59;;;11.44;59.38
15007;BME280;7599;50.748;13.142;2023-04-05T02:17:06;96188.78;;;11.45;59.30
15007;BME280;7599;50.748;13.142;2023-04-05T02:20:09;96192.66;;;11.42;59.63
15007;BME280;7599;50.748;13.142;2023-04-05T02:23:12;96188.19;;;11.43;59.43
15007;BME280;7599;50.748;13.142;2023-04-05T02:26:15;96183.13;;;11.41;59.30
15007;BME280;7599;50.748;13.142;2023-04-05T02:29:18;96190.00;;;11.42;59.09
15007;BME280;7599;50.748;13.142;2023-04-05T02:32:23;96188.41;;;11.41;59.41
15007;BME280;7599;50.748;13.142;2023-04-05T02:35:26;96185.22;;;11.39;59.33
15007;BME280;7599;50.748;13.142;2023-04-05T02:38:29;96184.41;;;11.39;59.62
15007;BME280;7599;50.748;13.142;2023-04-05T02:41:31;96182.13;;;11.42;59.55
15007;BME280;7599;50.748;13.142;2023-04-05T02:44:34;96182.56;;;11.39;59.49
15007;BME280;7599;50.748;13.142;2023-04-05T02:47:38;96176.50;;;11.39;59.51
15007;BME280;7599;50.748;13.142;2023-04-05T02:50:41;96172.25;;;11.38;59.66
15007;BME280;7599;50.748;13.142;2023-04-05T02:53:43;96174.09;;;11.37;59.65
15007;BME280;7599;50.748;13.142;2023-04-05T02:56:48;96178.34;;;11.38;59.68
15007;BME280;7599;50.748;13.142;2023-04-05T02:59:55;96171.44;;;11.37;59.71
15007;BME280;7599;50.748;13.142;2023-04-05T03:02:59;96179.34;;;11.37;59.14
15007;BME280;7599;50.748;13.142;2023-04-05T03:06:03;96166.19;;;11.37;59.43
15007;BME280;7599;50.748;13.142;2023-04-05T03:09:10;96171.44;;;11.37;59.75
15007;BME280;7599;50.748;13.142;2023-04-05T03:12:14;96161.94;;;11.36;59.45
15007;BME280;7599;50.748;13.142;2023-04-05T03:15:17;96173.28;;;11.37;59.74
15007;BME280;7599;50.748;13.142;2023-04-05T03:18:20;96174.91;;;11.38;59.39
15007;BME280;7599;50.748;13.142;2023-04-05T03:21:26;96168.81;;;11.37;59.57
15007;BME280;7599;50.748;13.142;2023-04-05T03:24:30;96165.16;;;11.38;59.47
15007;BME280;7599;50.748;13.142;2023-04-05T03:27:33;96171.22;;;11.39;59.69
15007;BME280;7599;50.748;13.142;2023-04-05T03:30:35;96165.16;;;11.38;59.49
15007;BME280;7599;50.748;13.142;2023-04-05T03:33:39;96154.63;;;11.38;59.24
15007;BME280;7599;50.748;13.142;2023-04-05T03:36:42;96158.28;;;11.37;59.33
15007;BME280;7599;50.748;13.142;2023-04-05T03:39:44;96159.09;;;11.38;59.40
15007;BME280;7599;50.748;13.142;2023-04-05T03:42:46;96161.50;;;11.39;59.19
15007;BME280;7599;50.748;13.142;2023-04-05T03:45:49;96159.69;;;11.40;59.67
15007;BME280;7599;50.748;13.142;2023-04-05T03:48:53;96162.31;;;11.40;59.62
15007;BME280;7599;50.748;13.142;2023-04-05T03:51:56;96164.94;;;11.40;59.41
15007;BME280;7599;50.748;13.142;2023-04-05T03:54:58;96161.50;;;11.39;59.29
15007;BME280;7599;50.748;13.142;2023-04-05T03:58:01;96166.78;;;11.39;59.46
15007;BME280;7599;50.748;13.142;2023-04-05T04:01:04;96165.16;;;11.38;59.54
15007;BME280;7599;50.748;13.142;2023-04-05T04:04:08;96162.53;;;11.38;59.68
15007;BME280;7599;50.748;13.142;2023-04-05T04:07:10;96166.78;;;11.39;59.86
15007;BME280;7599;50.748;13.142;2023-04-05T04:10:15;96163.34;;;11.39;59.50
15007;BME280;7599;50.748;13.142;2023-04-05T04:13:18;96163.56;;;11.37;59.33
15007;BME280;7599;50.748;13.142;2023-04-05T04:16:21;96154.03;;;11.36;59.54
15007;BME280;7599;50.748;13.142;2023-04-05T04:19:26;96169.41;;;11.39;59.58
15007;BME280;7599;50.748;13.142;2023-04-05T04:22:28;96167.00;;;11.38;59.40
15007;BME280;7599;50.748;13.142;2023-04-05T04:25:33;96160.91;;;11.37;59.58
15007;BME280;7599;50.748;13.142;2023-04-05T04:28:36;96157.47;;;11.37;59.75
15007;BME280;7599;50.748;13.142;2023-04-05T04:31:39;96156.66;;;11.36;59.61
15007;BME280;7599;50.748;13.142;2023-04-05T04:34:47;96165.38;;;11.37;59.64
15007;BME280;7599;50.748;13.142;2023-04-05T04:37:52;96159.31;;;11.36;59.31
15007;BME280;7599;50.748;13.142;2023-04-05T04:40:55;96165.38;;;11.37;59.62
15007;BME280;7599;50.748;13.142;2023-04-05T04:43:58;96160.13;;;11.37;59.73
15007;BME280;7599;50.748;13.142;2023-04-05T04:47:03;96160.91;;;11.37;59.67
15007;BME280;7599;50.748;13.142;2023-04-05T04:50:09;96161.94;;;11.36;59.53
15007;BME280;7599;50.748;13.142;2023-04-05T04:53:12;96162.75;;;11.37;59.22
15007;BME280;7599;50.748;13.142;2023-04-05T04:56:17;96159.31;;;11.36;59.25
15007;BME280;7599;50.748;13.142;2023-04-05T04:59:21;96170.66;;;11.37;59.59
15007;BME280;7599;50.748;13.142;2023-04-05T05:02:24;96172.25;;;11.38;59.19
15007;BME280;7599;50.748;13.142;2023-04-05T05:05:30;96173.28;;;11.37;59.71
15007;BME280;7599;50.748;13.142;2023-04-05T05:08:33;96172.47;;;11.36;59.52
15007;BME280;7599;50.748;13.142;2023-04-05T05:11:36;96176.94;;;11.36;59.59
15007;BME280;7599;50.748;13.142;2023-04-05T05:14:38;96175.31;;;11.35;59.51
15007;BME280;7599;50.748;13.142;2023-04-05T05:17:41;96179.56;;;11.36;59.46
15007;BME280;7599;50.748;13.142;2023-04-05T05:20:50;96176.94;;;11.36;59.66
15007;BME280;7599;50.748;13.142;2023-04-05T05:23:53;96173.72;;;11.34;59.31
15007;BME280;7599;50.748;13.142;2023-04-05T05:26:56;96176.94;;;11.36;59.45
15007;BME280;7599;50.748;13.142;2023-04-05T05:29:58;96178.88;;;11.40;59.26
15007;BME280;7599;50.748;13.142;2023-04-05T05:33:01;96178.88;;;11.40;59.37
15007;BME280;7599;50.748;13.142;2023-04-05T05:36:07;96174.69;;;11.39;59.23
15007;BME280;7599;50.748;13.142;2023-04-05T05:39:09;96174.69;;;11.39;59.19
15007;BME280;7599;50.748;13.142;2023-04-05T05:42:12;96184.41;;;11.39;59.12
15007;BME280;7599;50.748;13.142;2023-04-05T05:45:15;96174.09;;;11.37;59.14
15007;BME280;7599;50.748;13.142;2023-04-05T05:48:18;96174.09;;;11.37;59.04
15007;BME280;7599;50.748;13.142;2023-04-05T05:51:22;96173.06;;;11.38;59.10
15007;BME280;7599;50.748;13.142;2023-04-05T05:54:25;96179.13;;;11.39;58.93
15007;BME280;7599;50.748;13.142;2023-04-05T05:57:28;96167.56;;;11.40;59.16
15007;BME280;7599;50.748;13.142;2023-04-05T06:00:30;96173.63;;;11.40;59.20
15007;BME280;7599;50.748;13.142;2023-04-05T06:03:33;96164.94;;;11.40;59.22
15007;BME280;7599;50.748;13.142;2023-04-05T06:06:38;96167.00;;;11.38;58.97
15007;BME280;7599;50.748;13.142;2023-04-05T06:09:43;96166.78;;;11.39;59.16
15007;BME280;7599;50.748;13.142;2023-04-05T06:12:47;96168.34;;;11.40;58.93
15007;BME280;7599;50.748;13.142;2023-04-05T06:15:51;96172.84;;;11.40;59.17
15007;BME280;7599;50.748;13.142;2023-04-05T06:18:54;96177.31;;;11.39;59.12
15007;BME280;7599;50.748;13.142;2023-04-05T06:21:58;96178.34;;;11.38;58.84
15007;BME280;7599;50.748;13.142;2023-04-05T06:25:01;96178.13;;;11.40;58.84
15007;BME280;7599;50.748;13.142;2023-04-05T06:28:05;96177.88;;;11.41;59.06
15007;BME280;7599;50.748;13.142;2023-04-05T06:52:58;96175.69;;;11.38;59.05
15007;BME280;7599;50.748;13.142;2023-04-05T06:56:44;96173.06;;;11.38;58.97
15007;BME280;7599;50.748;13.142;2023-04-05T07:04:56;96175.09;;;11.36;58.85
15007;BME280;7599;50.748;13.142;2023-04-05T07:08:06;96174.09;;;11.37;58.98
15007;BME280;7599;50.748;13.142;2023-04-05T07:11:12;96171.22;;;11.39;58.87
15007;BME280;7599;50.748;13.142;2023-04-05T07:14:14;96171.22;;;11.39;58.87
15007;BME280;7599;50.748;13.142;2023-04-05T07:17:17;96166.78;;;11.39;58.84
15007;BME280;7599;50.748;13.142;2023-04-05T07:20:20;96170.22;;;11.40;58.82
15007;BME280;7599;50.748;13.142;2023-04-05T07:23:24;96164.69;;;11.41;58.81
15007;BME280;7599;50.748;13.142;2023-04-05T07:26:28;96169.16;;;11.41;58.72
15007;BME280;7599;50.748;13.142;2023-04-05T07:29:35;96175.22;;;11.41;58.63
15007;BME280;7599;50.748;13.142;2023-04-05T07:32:40;96167.34;;;11.41;59.04
15007;BME280;7599;50.748;13.142;2023-04-05T07:35:43;96159.44;;;11.41;58.88
15007;BME280;7599;50.748;13.142;2023-04-05T07:38:48;96162.66;;;11.43;58.79
15007;BME280;7599;50.748;13.142;2023-04-05T07:41:51;96160.00;;;11.43;58.96
15007;BME280;7599;50.748;13.142;2023-04-05T07:44:54;96166.09;;;11.44;58.77
15007;BME280;7599;50.748;13.142;2023-04-05T07:47:58;96161.84;;;11.43;58.56
15007;BME280;7599;50.748;13.142;2023-04-05T07:51:04;96160.81;;;11.44;58.66
15007;BME280;7599;50.748;13.142;2023-04-05T07:54:09;96160.00;;;11.43;58.88
15007;BME280;7599;50.748;13.142;2023-04-05T07:57:15;96165.06;;;11.45;58.74
15007;BME280;7599;50.748;13.142;2023-04-05T08:00:21;96170.34;;;11.45;58.76
15007;BME280;7599;50.748;13.142;2023-04-05T08:03:23;96170.34;;;11.45;58.55
15007;BME280;7599;50.748;13.142;2023-04-05T08:06:27;96169.53;;;11.44;58.65
15007;BME280;7599;50.748;13.142;2023-04-05T08:09:31;96167.69;;;11.45;58.61
15007;BME280;7599;50.748;13.142;2023-04-05T08:12:34;96167.69;;;11.45;58.53
15007;BME280;7599;50.748;13.142;2023-04-05T08:15:39;96158.19;;;11.44;58.83
15007;BME280;7599;50.748;13.142;2023-04-05T08:18:42;96156.34;;;11.44;58.55
15007;BME280;7599;50.748;13.142;2023-04-05T08:21:44;96160.00;;;11.43;58.72
15007;BME280;7599;50.748;13.142;2023-04-05T08:24:48;96160.59;;;11.45;58.73
15007;BME280;7599;50.748;13.142;2023-04-05T08:27:51;96154.75;;;11.43;58.43
15007;BME280;7599;50.748;13.142;2023-04-05T08:30:54;96161.03;;;11.42;58.88
15007;BME280;7599;50.748;13.142;2023-04-05T08:33:57;96153.72;;;11.44;58.47
15007;BME280;7599;50.748;13.142;2023-04-05T08:37:00;96153.72;;;11.44;58.77
15007;BME280;7599;50.748;13.142;2023-04-05T08:40:06;96147.66;;;11.44;58.45
15007;BME280;7599;50.748;13.142;2023-04-05T08:43:12;96147.44;;;11.45;58.47
15007;BME280;7599;50.748;13.142;2023-04-05T08:46:19;96150.28;;;11.44;58.57
15007;BME280;7599;50.748;13.142;2023-04-05T08:49:23;96154.53;;;11.45;58.82
15007;BME280;7599;50.748;13.142;2023-04-05T08:52:26;96156.13;;;11.46;58.63
15007;BME280;7599;50.748;13.142;2023-04-05T08:55:32;96151.09;;;11.44;58.48
15007;BME280;7599;50.748;13.142;2023-04-05T08:58:36;96152.69;;;11.45;58.45
15007;BME280;7599;50.748;13.142;2023-04-05T09:01:42;96152.69;;;11.45;58.84
15007;BME280;7599;50.748;13.142;2023-04-05T09:04:46;96147.44;;;11.45;58.51
15007;BME280;7599;50.748;13.142;2023-04-05T09:07:49;96154.53;;;11.45;58.54
15007;BME280;7599;50.748;13.142;2023-04-05T09:10:54;96156.34;;;11.44;58.84
15007;BME280;7599;50.748;13.142;2023-04-05T09:13:56;96152.91;;;11.44;58.46
15007;BME280;7599;50.748;13.142;2023-04-05T09:17:01;96157.16;;;11.45;58.79
15007;BME280;7599;50.748;13.142;2023-04-05T09:20:05;96156.13;;;11.46;58.53
15007;BME280;7599;50.748;13.142;2023-04-05T09:23:07;96165.88;;;11.45;58.28
15007;BME280;7599;50.748;13.142;2023-04-05T09:26:22;96159.38;;;11.48;58.54
15007;BME280;7599;50.748;13.142;2023-04-05T09:29:28;96162.22;;;11.46;58.51
15007;BME280;7599;50.748;13.142;2023-04-05T09:32:32;96157.75;;;11.47;58.42
15007;BME280;7599;50.748;13.142;2023-04-05T09:35:35;96157.38;;;11.43;58.65
15007;BME280;7599;50.748;13.142;2023-04-05T09:38:41;96157.38;;;11.43;58.78
15007;BME280;7599;50.748;13.142;2023-04-05T09:42:03;96153.72;;;11.44;58.30
15007;BME280;7599;50.748;13.142;2023-04-05T09:45:07;96152.91;;;11.44;58.90
15007;BME280;7599;50.748;13.142;2023-04-05T09:48:10;96147.66;;;11.44;58.60
15007;BME280;7599;50.748;13.142;2023-04-05T09:51:14;96148.69;;;11.43;58.54
15007;BME280;7599;50.748;13.142;2023-04-05T09:54:17;96153.50;;;11.46;58.43
15007;BME280;7599;50.748;13.142;2023-04-05T09:57:23;96150.06;;;11.45;58.68
15007;BME280;7599;50.748;13.142;2023-04-05T10:00:28;96146.41;;;11.46;58.44
15007;BME280;7599;50.748;13.142;2023-04-05T10:03:31;96145.59;;;11.46;58.61
15007;BME280;7599;50.748;13.142;2023-04-05T10:06:50;96144.00;;;11.45;58.80
15007;BME280;7599;50.748;13.142;2023-04-05T10:09:54;96144.00;;;11.45;58.31
15007;BME280;7599;50.748;13.142;2023-04-05T10:12:59;96146.63;;;11.45;58.62
15007;BME280;7599;50.748;13.142;2023-04-05T10:16:05;96149.25;;;11.45;58.73
15007;BME280;7599;50.748;13.142;2023-04-05T10:19:15;96149.25;;;11.45;58.43
15007;BME280;7599;50.748;13.142;2023-04-05T10:22:29;96148.47;;;11.44;58.44
15007;BME280;7599;50.748;13.142;2023-04-05T10:25:45;96149.25;;;11.45;58.44
15007;BME280;7599;50.748;13.142;2023-04-05T10:28:59;96131.84;;;11.44;58.81
15007;BME280;7599;50.748;13.142;2023-04-05T10:32:08;96137.91;;;11.44;58.33
15007;BME280;7599;50.748;13.142;2023-04-05T10:35:15;96132.66;;;11.44;58.58
15007;BME280;7599;50.748;13.142;2023-04-05T10:38:21;96127.16;;;11.46;58.58
15007;BME280;7599;50.748;13.142;2023-04-05T10:41:25;96130.59;;;11.46;58.51
15007;BME280;7599;50.748;13.142;2023-04-05T10:44:33;96122.69;;;11.46;58.78
15007;BME280;7599;50.748;13.142;2023-04-05T10:47:41;96125.34;;;11.46;58.36
15007;BME280;7599;50.748;13.142;2023-04-05T10:50:46;96122.69;;;11.46;58.33
15007;BME280;7599;50.748;13.142;2023-04-05T10:53:49;96115.00;;;11.45;58.84
15007;BME280;7599;50.748;13.142;2023-04-05T10:56:53;96124.31;;;11.47;58.74
15007;BME280;7599;50.748;13.142;2023-04-05T10:59:59;96120.88;;;11.47;58.63
15007;BME280;7599;50.748;13.142;2023-04-05T11:03:03;96119.03;;;11.47;58.80
15007;BME280;7599;50.748;13.142;2023-04-05T11:06:19;96114.78;;;11.46;58.43
15007;BME280;7599;50.748;13.142;2023-04-05T11:09:23;96114.00;;;11.46;58.80
15007;BME280;7599;50.748;13.142;2023-04-05T11:13:03;96110.34;;;11.47;58.35
15007;BME280;7599;50.748;13.142;2023-04-05T11:16:10;96112.16;;;11.46;58.46
15007;BME280;7599;50.748;13.142;2023-04-05T11:19:15;96115.00;;;11.45;58.82
15007;BME280;7599;50.748;13.142;2023-04-05T11:22:25;96109.53;;;11.46;58.54
15007;BME280;7599;50.748;13.142;2023-04-05T11:25:29;96103.44;;;11.46;58.47
15007;BME280;7599;50.748;13.142;2023-04-05T11:28:35;96098.19;;;11.46;58.51
15007;BME280;7599;50.748;13.142;2023-04-05T11:31:59;96098.19;;;11.46;58.41
15007;BME280;7599;50.748;13.142;2023-04-05T11:35:12;96100.59;;;11.47;58.64
15007;BME280;7599;50.748;13.142;2023-04-05T11:38:20;96105.06;;;11.47;58.78
15007;BME280;7599;50.748;13.142;2023-04-05T11:41:24;96097.97;;;11.47;58.93
15007;BME280;7599;50.748;13.142;2023-04-05T11:44:40;96097.97;;;11.47;58.88
15007;BME280;7599;50.748;13.142;2023-04-05T11:47:44;96095.56;;;11.46;58.85
15007;BME280;7599;50.748;13.142;2023-04-05T11:50:49;96095.56;;;11.46;58.67
15007;BME280;7599;50.748;13.142;2023-04-05T11:53:52;96100.81;;;11.46;58.43
15007;BME280;7599;50.748;13.142;2023-04-05T11:56:55;96093.72;;;11.46;58.47
15007;BME280;7599;50.748;13.142;2023-04-05T11:59:57;96096.34;;;11.46;58.62
15007;BME280;7599;50.748;13.142;2023-04-05T12:03:02;96091.31;;;11.45;58.77
15007;BME280;7599;50.748;13.142;2023-04-05T12:06:05;96092.09;;;11.45;58.51
15007;BME280;7599;50.748;13.142;2023-04-05T12:09:08;96093.13;;;11.44;58.43
15007;BME280;7599;50.748;13.142;2023-04-05T12:12:15;96093.72;;;11.46;58.42
15007;BME280;7599;50.748;13.142;2023-04-05T12:15:18;96095.78;;;11.44;58.89
15007;BME280;7599;50.748;13.142;2023-04-05T12:18:23;96091.09;;;11.46;58.86
15007;BME280;7599;50.748;13.142;2023-04-05T12:21:26;96092.09;;;11.45;58.62
15007;BME280;7599;50.748;13.142;2023-04-05T12:24:30;96084.22;;;11.45;58.72
15007;BME280;7599;50.748;13.142;2023-04-05T12:27:32;96086.63;;;11.47;58.62
15007;BME280;7599;50.748;13.142;2023-04-05T12:30:47;96090.28;;;11.46;58.97
15007;BME280;7599;50.748;13.142;2023-04-05T12:33:58;96089.69;;;11.44;58.93
15007;BME280;7599;50.748;13.142;2023-04-05T12:37:01;96086.84;;;11.45;58.58
15007;BME280;7599;50.748;13.142;2023-04-05T12:40:05;96078.34;;;11.43;58.61
15007;BME280;7599;50.748;13.142;2023-04-05T12:43:11;96074.91;;;11.43;58.40
15007;BME280;7599;50.748;13.142;2023-04-05T12:46:20;96068.84;;;11.42;58.55
15007;BME280;7599;50.748;13.142;2023-04-05T12:49:26;96074.91;;;11.43;58.78
15007;BME280;7599;50.748;13.142;2023-04-05T12:52:30;96071.47;;;11.42;58.83
15007;BME280;7599;50.748;13.142;2023-04-05T12:55:41;96075.72;;;11.43;58.89
15007;BME280;7599;50.748;13.142;2023-04-05T12:58:48;96067.00;;;11.43;58.88
15007;BME280;7599;50.748;13.142;2023-04-05T13:01:50;96068.63;;;11.44;58.78
15007;BME280;7599;50.748;13.142;2023-04-05T13:04:54;96074.69;;;11.44;58.49
15007;BME280;7599;50.748;13.142;2023-04-05T13:07:57;96072.06;;;11.44;58.54
15007;BME280;7599;50.748;13.142;2023-04-05T13:11:00;96069.44;;;11.44;58.56
15007;BME280;7599;50.748;13.142;2023-04-05T13:14:04;96060.50;;;11.45;58.57
15007;BME280;7599;50.748;13.142;2023-04-05T13:17:06;96066.56;;;11.46;58.95
15007;BME280;7599;50.748;13.142;2023-04-05T13:20:11;96057.06;;;11.45;58.67
15007;BME280;7599;50.748;13.142;2023-04-05T13:23:13;96065.53;;;11.47;58.58
15007;BME280;7599;50.748;13.142;2023-04-05T13:26:16;96056.63;;;11.48;58.43
15007;BME280;7599;50.748;13.142;2023-04-05T13:29:19;96056.63;;;11.48;58.90
15007;BME280;7599;50.748;13.142;2023-04-05T13:32:21;96057.41;;;11.48;58.58
15007;BME280;7599;50.748;13.142;2023-04-05T13:35:25;96050.09;;;11.50;58.57
15007;BME280;7599;50.748;13.142;2023-04-05T13:38:28;96038.97;;;11.48;58.43
15007;BME280;7599;50.748;13.142;2023-04-05T13:41:31;96040.59;;;11.49;58.71
15007;BME280;7599;50.748;13.142;2023-04-05T13:44:33;96048.50;;;11.49;58.52
15007;BME280;7599;50.748;13.142;2023-04-05T13:47:36;96049.28;;;11.50;58.42
15007;BME280;7599;50.748;13.142;2023-04-05T13:50:40;96040.59;;;11.49;58.61
15007;BME280;7599;50.748;13.142;2023-04-05T13:53:43;96035.09;;;11.51;58.93
15007;BME280;7599;50.748;13.142;2023-04-05T13:56:46;96038.75;;;11.50;58.61
15007;BME280;7599;50.748;13.142;2023-04-05T13:59:49;96031.88;;;11.49;58.65
15007;BME280;7599;50.748;13.142;2023-04-05T14:02:51;96035.31;;;11.49;58.59
15007;BME280;7599;50.748;13.142;2023-04-05T14:05:55;96037.16;;;11.49;59.00
15007;BME280;7599;50.748;13.142;2023-04-05T14:08:58;96031.66;;;11.50;58.73
15007;BME280;7599;50.748;13.142;2023-04-05T14:12:01;96031.66;;;11.50;58.84
15007;BME280;7599;50.748;13.142;2023-04-05T14:15:05;96023.97;;;11.49;59.02
15007;BME280;7599;50.748;13.142;2023-04-05T14:18:08;96026.38;;;11.50;58.77
15007;BME280;7599;50.748;13.142;2023-04-05T14:21:12;96020.31;;;11.50;58.79
15007;BME280;7599;50.748;13.142;2023-04-05T14:24:15;96021.34;;;11.49;58.62
15007;BME280;7599;50.748;13.142;2023-04-05T14:27:18;96021.13;;;11.50;58.70
15007;BME280;7599;50.748;13.142;2023-04-05T14:30:26;96021.94;;;11.51;58.76
15007;BME280;7599;50.748;13.142;2023-04-05T14:33:29;96018.50;;;11.50;58.63
15007;BME280;7599;50.748;13.142;2023-04-05T14:36:34;96013.44;;;11.49;58.63
15007;BME280;7599;50.748;13.142;2023-04-05T14:39:37;96010.59;;;11.50;58.78
15007;BME280;7599;50.748;13.142;2023-04-05T14:42:39;96015.84;;;11.50;58.78
15007;BME280;7599;50.748;13.142;2023-04-05T14:45:50;96009.78;;;11.50;58.35
15007;BME280;7599;50.748;13.142;2023-04-05T14:48:52;96011.59;;;11.49;58.67
15007;BME280;7599;50.748;13.142;2023-04-05T14:51:56;96012.41;;;11.50;58.97
15007;BME280;7599;50.748;13.142;2023-04-05T14:54:59;96011.38;;;11.51;58.75
15007;BME280;7599;50.748;13.142;2023-04-05T14:58:02;96012.16;;;11.51;58.41
15007;BME280;7599;50.748;13.142;2023-04-05T15:01:04;96016.66;;;11.51;58.57
15007;BME280;7599;50.748;13.142;2023-04-05T15:04:10;96005.53;;;11.49;58.93
15007;BME280;7599;50.748;13.142;2023-04-05T15:07:14;96010.59;;;11.50;58.67
15007;BME280;7599;50.748;13.142;2023-04-05T15:10:17;96004.50;;;11.50;58.85
15007;BME280;7599;50.748;13.142;2023-04-05T15:13:20;96008.97;;;11.49;58.86
15007;BME280;7599;50.748;13.142;2023-04-05T15:16:24;96005.75;;;11.47;59.14
15007;BME280;7599;50.748;13.142;2023-04-05T15:19:27;95996.81;;;11.48;58.80
15007;BME280;7599;50.748;13.142;2023-04-05T15:22:32;96001.06;;;11.49;58.85
15007;BME280;7599;50.748;13.142;2023-04-05T15:25:36;95999.47;;;11.48;59.01
15007;BME280;7599;50.748;13.142;2023-04-05T15:28:38;95999.47;;;11.48;58.40
15007;BME280;7599;50.748;13.142;2023-04-05T15:31:41;96000.03;;;11.50;58.58
15007;BME280;7599;50.748;13.142;2023-04-05T15:48:40;95987.53;;;11.46;58.82
15007;BME280;7599;50.748;13.142;2023-04-05T15:51:53;95986.28;;;11.48;58.70
15007;BME280;7599;50.748;13.142;2023-04-05T15:54:56;95994.78;;;11.50;58.89
15007;BME280;7599;50.748;13.142;2023-04-05T15:57:58;95987.91;;;11.49;58.55
15007;BME280;7599;50.748;13.142;2023-04-05T16:01:01;95991.88;;;11.52;58.72
15007;BME280;7599;50.748;13.142;2023-04-05T16:04:05;95995.31;;;11.52;59.13
15007;BME280;7599;50.748;13.142;2023-04-05T16:07:07;96006.13;;;11.51;59.01
15007;BME280;7599;50.748;13.142;2023-04-05T16:10:11;96005.88;;;11.52;58.71
15007;BME280;7599;50.748;13.142;2023-04-05T16:13:14;95999.56;;;11.53;58.69
15007;BME280;7599;50.748;13.142;2023-04-05T16:16:17;95996.94;;;11.53;58.49
15007;BME280;7599;50.748;13.142;2023-04-05T16:19:36;96004.84;;;11.53;58.85
15007;BME280;7599;50.748;13.142;2023-04-05T16:22:39;95995.91;;;11.54;59.13
15007;BME280;7599;50.748;13.142;2023-04-05T16:25:42;95990.06;;;11.52;58.59
15007;BME280;7599;50.748;13.142;2023-04-05T16:28:44;95992.69;;;11.52;58.77
15007;BME280;7599;50.748;13.142;2023-04-05T16:31:47;95995.31;;;11.52;58.90
15007;BME280;7599;50.748;13.142;2023-04-05T16:34:51;95991.66;;;11.53;58.57
15007;BME280;7599;50.748;13.142;2023-04-05T16:37:53;95998.53;;;11.54;58.75
15007;BME280;7599;50.748;13.142;2023-04-05T16:40:56;95990.06;;;11.52;58.98
15007;BME280;7599;50.748;13.142;2023-04-05T16:43:59;95993.72;;;11.51;58.76
15007;BME280;7599;50.748;13.142;2023-04-05T16:47:02;95991.09;;;11.51;58.96
15007;BME280;7599;50.748;13.142;2023-04-05T16:50:07;95992.69;;;11.52;58.79
15007;BME280;7599;50.748;13.142;2023-04-05T16:53:09;95992.94;;;11.51;58.71
15007;BME280;7599;50.748;13.142;2023-04-05T16:56:12;95989.50;;;11.50;59.07
15007;BME280;7599;50.748;13.142;2023-04-05T16:59:15;95992.69;;;11.52;58.50